Flight Track Log - Related Links

Times and Time Zones

All times are in EDT time to prevent confusion due to time zone crossing. See the CSZ9471 flight status page for this flight to view local times or setup timezone preferences in your user account.

Time Position Orientation Groundspeed Altitude Reporting Facility
EDT Latitude Longitude Course Direction KTS MPH feet Rate Location/Type
Tue 12:06:00 AM 26.7932 119.4902 350° North  Level Estimated
Tue 12:07:00 AM 26.9004 119.4684 350° North  Level Estimated
Tue 12:08:00 AM 27.0077 119.4465 350° North  Level Estimated
Tue 12:09:00 AM 27.1149 119.4246 350° North  Level Estimated
Tue 12:10:00 AM 27.2221 119.4027 350° North  Level Estimated
Tue 12:11:00 AM 27.3294 119.3807 350° North  Level Estimated
Tue 12:12:00 AM 27.4366 119.3587 350° North  Level Estimated
Tue 12:13:00 AM 27.5438 119.3366 350° North  Level Estimated
Tue 12:14:00 AM 27.6510 119.3145 350° North  Level Estimated
Tue 12:15:00 AM 27.7583 119.2923 350° North  Level Estimated
Tue 12:16:00 AM 27.8655 119.2701 350° North  Level Estimated
Tue 12:17:00 AM 27.9727 119.2479 350° North  Level Estimated
Tue 12:18:00 AM 28.0799 119.2256 350° North  Level Estimated
Tue 12:19:00 AM 28.1871 119.2033 350° North  Level Estimated
Tue 12:20:00 AM 28.2943 119.1809 350° North  Level Estimated
Tue 12:21:00 AM 28.4015 119.1585 350° North  Level Estimated
Tue 12:22:00 AM 28.5087 119.1360 350° North  Level Estimated
Tue 12:23:00 AM 28.6159 119.1135 350° North  Level Estimated
Tue 12:24:00 AM 28.7231 119.0909 350° North  Level Estimated
Tue 12:25:00 AM 28.8303 119.0683 350° North  Level Estimated
Tue 12:26:00 AM 28.9374 119.0457 350° North  Level Estimated
Tue 12:27:00 AM 29.0446 119.0230 350° North  Level Estimated
Tue 12:28:00 AM 29.1518 119.0002 349° North  Level Estimated
Tue 12:29:00 AM 29.2590 118.9774 349° North  Level Estimated
Tue 12:30:00 AM 29.3661 118.9546 349° North  Level Estimated
Tue 12:31:00 AM 29.4733 118.9317 349° North  Level Estimated
Tue 12:32:00 AM 29.5804 118.9088 349° North  Level Estimated
Tue 12:33:00 AM 29.6876 118.8858 349° North  Level Estimated
Tue 12:34:00 AM 29.7947 118.8627 349° North  Level Estimated
Tue 12:35:00 AM 29.9019 118.8396 349° North  Level Estimated
Tue 12:36:00 AM 30.0090 118.8165 349° North  Level Estimated
Tue 12:37:00 AM 30.1162 118.7933 349° North  Level Estimated
Tue 12:38:00 AM 30.2233 118.7701 349° North  Level Estimated
Tue 12:39:00 AM 30.3304 118.7468 349° North  Level Estimated
Tue 12:40:00 AM 30.4375 118.7234 349° North  Level Estimated
Tue 12:41:00 AM 30.5447 118.7001 349° North  Level Estimated
Tue 12:42:00 AM 30.6518 118.6766 349° North  Level Estimated
Tue 12:43:00 AM 30.7589 118.6531 349° North  Level Estimated
Tue 12:44:00 AM 30.8660 118.6296 349° North  Level Estimated
Tue 12:45:00 AM 30.9731 118.6060 349° North  Level Estimated
Tue 12:46:00 AM 31.0802 118.5823 349° North  Level Estimated
Tue 12:47:00 AM 31.1873 118.5586 349° North  Level Estimated
Tue 12:48:00 AM 31.2944 118.5349 349° North  Level Estimated
Tue 12:49:00 AM 31.4015 118.5111 349° North  Level Estimated
Tue 12:50:00 AM 31.5086 118.4872 349° North  Level Estimated
Tue 12:51:00 AM 31.6156 118.4633 349° North  Level Estimated
Tue 12:52:00 AM 31.7227 118.4393 349° North  Level Estimated
Tue 12:53:00 AM 31.8298 118.4153 349° North  Level Estimated
Tue 12:54:00 AM 31.9368 118.3912 349° North  Level Estimated
Tue 12:55:00 AM 32.0439 118.3670 349° North  Level Estimated
Tue 12:56:00 AM 32.1510 118.3428 349° North  Level Estimated
Tue 12:57:00 AM 32.2580 118.3186 349° North  Level Estimated
Tue 12:58:00 AM 32.3651 118.2943 349° North  Level Estimated
Tue 12:59:00 AM 32.4721 118.2699 349° North  Level Estimated
Tue 01:00:00 AM 32.5791 118.2455 349° North  Level Estimated
Tue 01:01:00 AM 32.6861 118.2210 349° North  Level Estimated
Tue 01:02:00 AM 32.7932 118.1964 349° North  Level Estimated
Tue 01:03:00 AM 32.9002 118.1718 349° North  Level Estimated
Tue 01:04:00 AM 33.0072 118.1471 349° North  Level Estimated
Tue 01:05:00 AM 33.1142 118.1224 349° North  Level Estimated
Tue 01:06:00 AM 33.2212 118.0976 349° North  Level Estimated
Tue 01:07:00 AM 33.3282 118.0728 349° North  Level Estimated
Tue 01:08:00 AM 33.4352 118.0479 349° North  Level Estimated
Tue 01:09:00 AM 33.5422 118.0229 349° North  Level Estimated
Tue 01:10:00 AM 33.6492 117.9979 349° North  Level Estimated
Tue 01:11:00 AM 33.7562 117.9728 349° North  Level Estimated
Tue 01:12:00 AM 33.8632 117.9476 349° North  Level Estimated
Tue 01:13:00 AM 33.9701 117.9224 349° North  Level Estimated
Tue 01:14:00 AM 34.0771 117.8971 349° North  Level Estimated
Tue 01:15:00 AM 34.1841 117.8718 349° North  Level Estimated
Tue 01:16:00 AM 34.2910 117.8464 349° North  Level Estimated
Tue 01:17:00 AM 34.3980 117.8209 349° North  Level Estimated
Tue 01:18:00 AM 34.5049 117.7954 349° North  Level Estimated
Tue 01:19:00 AM 34.6119 117.7698 349° North  Level Estimated
Tue 01:20:00 AM 34.7188 117.7441 349° North  Level Estimated
Tue 01:21:00 AM 34.8257 117.7183 349° North  Level Estimated
Tue 01:22:00 AM 34.9327 117.6925 349° North  Level Estimated
Tue 01:23:00 AM 35.0396 117.6667 349° North  Level Estimated
Tue 01:24:00 AM 35.1465 117.6407 349° North  Level Estimated
Tue 01:25:00 AM 35.2534 117.6147 349° North  Level Estimated
Tue 01:26:00 AM 35.3603 117.5886 349° North  Level Estimated
Tue 01:27:00 AM 35.4672 117.5625 349° North  Level Estimated
Tue 01:28:00 AM 35.5741 117.5363 349° North  Level Estimated
Tue 01:29:00 AM 35.6810 117.5100 349° North  Level Estimated
Tue 01:30:00 AM 35.7878 117.4836 349° North  Level Estimated
Tue 01:31:00 AM 35.8947 117.4572 349° North  Level Estimated
Tue 01:32:00 AM 36.0016 117.4307 349° North  Level Estimated
Tue 01:33:00 AM 36.1084 117.4041 349° North  Level Estimated
Tue 01:34:00 AM 36.2153 117.3775 349° North  Level Estimated
Tue 01:35:00 AM 36.3222 117.3508 349° North  Level Estimated
Tue 01:36:00 AM 36.4290 117.3240 349° North  Level Estimated
Tue 01:37:00 AM 36.5358 117.2971 349° North  Level Estimated
Tue 01:38:00 AM 36.6427 117.2702 349° North  Level Estimated
Tue 01:39:00 AM 36.7495 117.2431 349° North  Level Estimated
Tue 01:40:00 AM 36.8563 117.2161 349° North  Level Estimated
Tue 01:41:00 AM 36.8566 117.2160 349° North  Level Estimated
Tue 01:42:00 AM 36.8566 117.2160 North  Level Estimated
Tue 01:43:00 AM 36.8566 117.2160 North  Level Estimated
Tue 01:44:00 AM 36.8566 117.2160 North  Level Estimated
Tue 01:45:00 AM 36.8566 117.2160 North  Level Estimated
Tue 01:46:00 AM 36.8566 117.2160 North  Level Estimated
Tue 01:47:00 AM 36.8566 117.2160 North  Level Estimated
Tue 01:48:00 AM 36.8566 117.2160 North  Level Estimated
Tue 01:49:00 AM 36.8566 117.2160 North  Level Estimated
Tue 01:50:00 AM 36.8566 117.2160 North  Level Estimated
Tue 01:51:00 AM 36.8566 117.2160 North  Level Estimated
Tue 01:52:00 AM 36.8566 117.2160 North  Level Estimated
Tue 01:53:00 AM 36.8566 117.2160 North  Level Estimated
Tue 01:54:00 AM 36.8566 117.2160 North  Level Estimated
Tue 01:55:00 AM 36.8566 117.2160 North  Level Estimated
Tue 01:56:00 AM 36.8566 117.2160 North  Level Estimated

Login

Don't have an account? Register now (free) for customized features, flight alerts, and more!